sensor_id;sensor_type;location;lat;lon;timestamp;P1;durP1;ratioP1;P2;durP2;ratioP2
21235;SDS011;10775;42.678;26.324;2023-02-28T00:01:32;6.43;;;3.75;;
21235;SDS011;10775;42.678;26.324;2023-02-28T00:03:58;6.57;;;4.18;;
21235;SDS011;10775;42.678;26.324;2023-02-28T00:06:24;6.30;;;4.50;;
21235;SDS011;10775;42.678;26.324;2023-02-28T00:08:50;7.55;;;4.68;;
21235;SDS011;10775;42.678;26.324;2023-02-28T00:11:16;5.95;;;4.20;;
21235;SDS011;10775;42.678;26.324;2023-02-28T00:13:42;5.95;;;4.50;;
21235;SDS011;10775;42.678;26.324;2023-02-28T00:16:14;7.18;;;4.40;;
21235;SDS011;10775;42.678;26.324;2023-02-28T00:18:42;7.32;;;4.90;;
21235;SDS011;10775;42.678;26.324;2023-02-28T00:21:08;10.35;;;5.15;;
21235;SDS011;10775;42.678;26.324;2023-02-28T00:23:34;6.47;;;4.22;;
21235;SDS011;10775;42.678;26.324;2023-02-28T00:26:00;7.80;;;4.78;;
21235;SDS011;10775;42.678;26.324;2023-02-28T00:28:25;8.80;;;4.63;;
21235;SDS011;10775;42.678;26.324;2023-02-28T00:30:51;6.70;;;4.30;;
21235;SDS011;10775;42.678;26.324;2023-02-28T00:33:16;5.68;;;4.05;;
21235;SDS011;10775;42.678;26.324;2023-02-28T00:35:42;6.75;;;4.28;;
21235;SDS011;10775;42.678;26.324;2023-02-28T00:38:11;7.60;;;4.05;;
21235;SDS011;10775;42.678;26.324;2023-02-28T00:40:37;5.85;;;4.15;;
21235;SDS011;10775;42.678;26.324;2023-02-28T00:43:02;8.10;;;4.32;;
21235;SDS011;10775;42.678;26.324;2023-02-28T00:45:29;7.20;;;4.30;;
21235;SDS011;10775;42.678;26.324;2023-02-28T00:47:54;6.97;;;4.43;;
21235;SDS011;10775;42.678;26.324;2023-02-28T00:50:20;6.57;;;3.97;;
21235;SDS011;10775;42.678;26.324;2023-02-28T00:52:45;6.40;;;4.15;;
21235;SDS011;10775;42.678;26.324;2023-02-28T00:55:11;7.38;;;3.95;;
21235;SDS011;10775;42.678;26.324;2023-02-28T00:57:37;5.53;;;3.65;;
21235;SDS011;10775;42.678;26.324;2023-02-28T01:00:02;7.30;;;4.35;;
21235;SDS011;10775;42.678;26.324;2023-02-28T01:02:29;12.65;;;5.82;;
21235;SDS011;10775;42.678;26.324;2023-02-28T01:04:55;5.25;;;3.95;;
21235;SDS011;10775;42.678;26.324;2023-02-28T01:07:21;5.78;;;4.07;;
21235;SDS011;10775;42.678;26.324;2023-02-28T01:09:47;7.55;;;4.43;;
21235;SDS011;10775;42.678;26.324;2023-02-28T01:12:13;6.70;;;3.63;;
21235;SDS011;10775;42.678;26.324;2023-02-28T01:14:38;5.82;;;3.75;;
21235;SDS011;10775;42.678;26.324;2023-02-28T01:17:04;6.03;;;4.10;;
21235;SDS011;10775;42.678;26.324;2023-02-28T01:19:29;9.15;;;4.20;;
21235;SDS011;10775;42.678;26.324;2023-02-28T01:21:55;6.30;;;4.00;;
21235;SDS011;10775;42.678;26.324;2023-02-28T01:24:20;7.57;;;3.60;;
21235;SDS011;10775;42.678;26.324;2023-02-28T01:26:46;7.05;;;3.85;;
21235;SDS011;10775;42.678;26.324;2023-02-28T01:29:11;6.40;;;4.05;;
21235;SDS011;10775;42.678;26.324;2023-02-28T01:31:36;5.07;;;3.33;;
21235;SDS011;10775;42.678;26.324;2023-02-28T01:34:02;5.53;;;3.85;;
21235;SDS011;10775;42.678;26.324;2023-02-28T01:36:28;5.45;;;3.72;;
21235;SDS011;10775;42.678;26.324;2023-02-28T01:38:54;5.85;;;3.67;;
21235;SDS011;10775;42.678;26.324;2023-02-28T01:41:24;7.13;;;4.07;;
21235;SDS011;10775;42.678;26.324;2023-02-28T01:43:54;8.63;;;4.43;;
21235;SDS011;10775;42.678;26.324;2023-02-28T01:46:22;6.57;;;3.60;;
21235;SDS011;10775;42.678;26.324;2023-02-28T01:48:51;6.07;;;3.78;;
21235;SDS011;10775;42.678;26.324;2023-02-28T01:54:05;6.63;;;3.45;;
21235;SDS011;10775;42.678;26.324;2023-02-28T01:56:38;6.43;;;3.67;;
21235;SDS011;10775;42.678;26.324;2023-02-28T01:59:09;4.80;;;3.35;;
21235;SDS011;10775;42.678;26.324;2023-02-28T02:01:37;6.50;;;3.88;;
21235;SDS011;10775;42.678;26.324;2023-02-28T02:04:03;6.93;;;3.80;;
21235;SDS011;10775;42.678;26.324;2023-02-28T02:06:30;6.97;;;3.88;;
21235;SDS011;10775;42.678;26.324;2023-02-28T02:09:02;7.22;;;3.95;;
21235;SDS011;10775;42.678;26.324;2023-02-28T02:11:28;5.28;;;3.25;;
21235;SDS011;10775;42.678;26.324;2023-02-28T02:22:16;5.45;;;3.85;;
21235;SDS011;10775;42.678;26.324;2023-02-28T02:41:43;4.75;;;3.60;;
21235;SDS011;10775;42.678;26.324;2023-02-28T02:44:24;5.82;;;3.58;;
21235;SDS011;10775;42.678;26.324;2023-02-28T02:46:58;5.53;;;3.47;;
21235;SDS011;10775;42.678;26.324;2023-02-28T02:49:30;5.85;;;3.80;;
21235;SDS011;10775;42.678;26.324;2023-02-28T02:52:00;6.10;;;3.77;;
21235;SDS011;10775;42.678;26.324;2023-02-28T02:54:30;5.82;;;3.67;;
21235;SDS011;10775;42.678;26.324;2023-02-28T02:57:01;6.32;;;3.38;;
21235;SDS011;10775;42.678;26.324;2023-02-28T02:59:31;5.50;;;3.88;;
21235;SDS011;10775;42.678;26.324;2023-02-28T03:02:00;5.25;;;3.53;;
21235;SDS011;10775;42.678;26.324;2023-02-28T03:04:31;6.35;;;3.42;;
21235;SDS011;10775;42.678;26.324;2023-02-28T03:07:02;6.00;;;3.17;;
21235;SDS011;10775;42.678;26.324;2023-02-28T03:09:28;5.32;;;3.30;;
21235;SDS011;10775;42.678;26.324;2023-02-28T03:11:54;5.20;;;3.78;;
21235;SDS011;10775;42.678;26.324;2023-02-28T03:17:23;5.38;;;3.45;;
21235;SDS011;10775;42.678;26.324;2023-02-28T03:22:49;5.57;;;3.50;;
21235;SDS011;10775;42.678;26.324;2023-02-28T03:30:47;6.60;;;4.25;;
21235;SDS011;10775;42.678;26.324;2023-02-28T03:33:21;4.97;;;3.33;;
21235;SDS011;10775;42.678;26.324;2023-02-28T03:35:52;6.20;;;3.67;;
21235;SDS011;10775;42.678;26.324;2023-02-28T03:41:06;7.20;;;3.85;;
21235;SDS011;10775;42.678;26.324;2023-02-28T03:43:34;5.53;;;3.60;;
21235;SDS011;10775;42.678;26.324;2023-02-28T03:46:05;5.28;;;3.35;;
21235;SDS011;10775;42.678;26.324;2023-02-28T03:48:45;5.00;;;3.13;;
21235;SDS011;10775;42.678;26.324;2023-02-28T03:51:33;8.18;;;3.97;;
21235;SDS011;10775;42.678;26.324;2023-02-28T03:54:02;7.05;;;4.28;;
21235;SDS011;10775;42.678;26.324;2023-02-28T03:56:37;6.72;;;4.10;;
21235;SDS011;10775;42.678;26.324;2023-02-28T04:01:39;7.70;;;3.88;;
21235;SDS011;10775;42.678;26.324;2023-02-28T04:04:07;6.47;;;3.75;;
21235;SDS011;10775;42.678;26.324;2023-02-28T04:06:34;8.00;;;4.47;;
21235;SDS011;10775;42.678;26.324;2023-02-28T04:09:02;5.30;;;3.92;;
21235;SDS011;10775;42.678;26.324;2023-02-28T04:11:39;6.25;;;3.80;;
21235;SDS011;10775;42.678;26.324;2023-02-28T04:14:07;5.80;;;3.97;;
21235;SDS011;10775;42.678;26.324;2023-02-28T04:16:35;5.60;;;3.80;;
21235;SDS011;10775;42.678;26.324;2023-02-28T04:19:03;5.60;;;4.05;;
21235;SDS011;10775;42.678;26.324;2023-02-28T04:21:31;6.68;;;3.42;;
21235;SDS011;10775;42.678;26.324;2023-02-28T04:23:58;5.72;;;3.97;;
21235;SDS011;10775;42.678;26.324;2023-02-28T04:26:29;6.50;;;3.83;;
21235;SDS011;10775;42.678;26.324;2023-02-28T04:28:55;6.80;;;4.00;;
21235;SDS011;10775;42.678;26.324;2023-02-28T04:31:21;5.88;;;3.50;;
21235;SDS011;10775;42.678;26.324;2023-02-28T04:33:46;5.78;;;4.10;;
21235;SDS011;10775;42.678;26.324;2023-02-28T04:36:12;6.32;;;4.00;;
21235;SDS011;10775;42.678;26.324;2023-02-28T04:38:39;6.75;;;4.13;;
21235;SDS011;10775;42.678;26.324;2023-02-28T04:41:04;6.47;;;4.18;;
21235;SDS011;10775;42.678;26.324;2023-02-28T04:43:30;5.40;;;3.50;;
21235;SDS011;10775;42.678;26.324;2023-02-28T04:45:56;7.57;;;4.03;;
21235;SDS011;10775;42.678;26.324;2023-02-28T04:48:23;7.43;;;4.68;;
21235;SDS011;10775;42.678;26.324;2023-02-28T04:50:50;6.72;;;3.63;;
21235;SDS011;10775;42.678;26.324;2023-02-28T04:53:17;5.63;;;3.95;;
21235;SDS011;10775;42.678;26.324;2023-02-28T04:55:43;5.40;;;3.90;;
21235;SDS011;10775;42.678;26.324;2023-02-28T04:58:08;5.97;;;3.97;;
21235;SDS011;10775;42.678;26.324;2023-02-28T05:00:34;6.07;;;3.90;;
21235;SDS011;10775;42.678;26.324;2023-02-28T05:03:00;5.72;;;3.65;;
21235;SDS011;10775;42.678;26.324;2023-02-28T05:05:25;4.75;;;3.67;;
21235;SDS011;10775;42.678;26.324;2023-02-28T05:07:50;7.18;;;4.05;;
21235;SDS011;10775;42.678;26.324;2023-02-28T05:10:16;6.88;;;4.15;;
21235;SDS011;10775;42.678;26.324;2023-02-28T05:12:42;7.20;;;4.13;;
21235;SDS011;10775;42.678;26.324;2023-02-28T05:15:08;7.70;;;4.32;;
21235;SDS011;10775;42.678;26.324;2023-02-28T05:17:38;6.20;;;4.18;;
21235;SDS011;10775;42.678;26.324;2023-02-28T05:20:04;4.85;;;3.60;;
21235;SDS011;10775;42.678;26.324;2023-02-28T05:22:30;7.10;;;4.55;;
21235;SDS011;10775;42.678;26.324;2023-02-28T05:24:56;4.88;;;4.00;;
21235;SDS011;10775;42.678;26.324;2023-02-28T05:27:22;7.63;;;4.53;;
21235;SDS011;10775;42.678;26.324;2023-02-28T05:29:48;7.50;;;4.65;;
21235;SDS011;10775;42.678;26.324;2023-02-28T05:32:15;7.82;;;4.20;;
21235;SDS011;10775;42.678;26.324;2023-02-28T05:34:40;6.68;;;3.80;;
21235;SDS011;10775;42.678;26.324;2023-02-28T05:37:08;7.20;;;4.18;;
21235;SDS011;10775;42.678;26.324;2023-02-28T05:39:37;5.85;;;3.50;;
21235;SDS011;10775;42.678;26.324;2023-02-28T05:42:03;4.95;;;3.55;;
21235;SDS011;10775;42.678;26.324;2023-02-28T05:44:29;6.72;;;3.70;;
21235;SDS011;10775;42.678;26.324;2023-02-28T05:46:55;6.70;;;4.20;;
21235;SDS011;10775;42.678;26.324;2023-02-28T05:49:20;6.35;;;3.95;;
21235;SDS011;10775;42.678;26.324;2023-02-28T05:51:46;5.18;;;3.55;;
21235;SDS011;10775;42.678;26.324;2023-02-28T05:54:11;6.78;;;3.85;;
21235;SDS011;10775;42.678;26.324;2023-02-28T05:56:36;6.65;;;4.05;;
21235;SDS011;10775;42.678;26.324;2023-02-28T05:59:06;7.72;;;4.80;;
21235;SDS011;10775;42.678;26.324;2023-02-28T06:04:02;7.35;;;4.38;;
21235;SDS011;10775;42.678;26.324;2023-02-28T06:06:28;7.65;;;3.55;;
21235;SDS011;10775;42.678;26.324;2023-02-28T06:08:55;5.90;;;3.50;;
21235;SDS011;10775;42.678;26.324;2023-02-28T06:11:21;5.75;;;3.85;;
21235;SDS011;10775;42.678;26.324;2023-02-28T06:13:47;5.60;;;3.70;;
21235;SDS011;10775;42.678;26.324;2023-02-28T06:16:12;7.57;;;3.95;;
21235;SDS011;10775;42.678;26.324;2023-02-28T06:18:38;6.65;;;4.07;;
21235;SDS011;10775;42.678;26.324;2023-02-28T06:21:04;10.63;;;6.57;;
21235;SDS011;10775;42.678;26.324;2023-02-28T06:23:29;5.72;;;3.53;;
21235;SDS011;10775;42.678;26.324;2023-02-28T06:25:55;7.35;;;4.60;;
21235;SDS011;10775;42.678;26.324;2023-02-28T06:28:23;11.57;;;6.07;;
21235;SDS011;10775;42.678;26.324;2023-02-28T06:30:50;10.10;;;6.22;;
21235;SDS011;10775;42.678;26.324;2023-02-28T06:33:15;6.45;;;3.65;;
21235;SDS011;10775;42.678;26.324;2023-02-28T06:35:43;7.97;;;3.80;;
21235;SDS011;10775;42.678;26.324;2023-02-28T06:38:11;7.43;;;3.38;;
21235;SDS011;10775;42.678;26.324;2023-02-28T06:40:36;7.00;;;3.65;;
21235;SDS011;10775;42.678;26.324;2023-02-28T06:43:02;5.35;;;3.45;;
21235;SDS011;10775;42.678;26.324;2023-02-28T06:45:28;6.82;;;3.90;;
21235;SDS011;10775;42.678;26.324;2023-02-28T06:47:54;5.43;;;3.42;;
21235;SDS011;10775;42.678;26.324;2023-02-28T06:50:20;6.72;;;3.45;;
21235;SDS011;10775;42.678;26.324;2023-02-28T06:52:45;8.52;;;4.28;;
21235;SDS011;10775;42.678;26.324;2023-02-28T06:55:11;8.13;;;4.50;;
21235;SDS011;10775;42.678;26.324;2023-02-28T06:57:37;10.55;;;5.97;;
21235;SDS011;10775;42.678;26.324;2023-02-28T07:00:09;20.55;;;13.07;;
21235;SDS011;10775;42.678;26.324;2023-02-28T07:02:35;13.55;;;8.85;;
21235;SDS011;10775;42.678;26.324;2023-02-28T07:05:01;10.73;;;6.88;;
21235;SDS011;10775;42.678;26.324;2023-02-28T07:07:26;10.50;;;7.03;;
21235;SDS011;10775;42.678;26.324;2023-02-28T07:09:52;8.55;;;5.57;;
21235;SDS011;10775;42.678;26.324;2023-02-28T07:12:17;7.35;;;4.88;;
21235;SDS011;10775;42.678;26.324;2023-02-28T07:14:43;10.18;;;6.20;;
21235;SDS011;10775;42.678;26.324;2023-02-28T07:17:09;10.13;;;5.70;;
21235;SDS011;10775;42.678;26.324;2023-02-28T07:19:37;10.98;;;6.70;;
21235;SDS011;10775;42.678;26.324;2023-02-28T07:22:03;11.43;;;9.38;;
21235;SDS011;10775;42.678;26.324;2023-02-28T07:24:29;11.93;;;6.53;;
21235;SDS011;10775;42.678;26.324;2023-02-28T07:26:55;9.60;;;7.20;;
21235;SDS011;10775;42.678;26.324;2023-02-28T07:29:21;7.93;;;5.22;;
21235;SDS011;10775;42.678;26.324;2023-02-28T07:31:46;9.45;;;6.13;;
21235;SDS011;10775;42.678;26.324;2023-02-28T07:34:12;10.05;;;6.10;;
21235;SDS011;10775;42.678;26.324;2023-02-28T07:36:38;8.68;;;6.05;;
21235;SDS011;10775;42.678;26.324;2023-02-28T07:39:04;10.45;;;5.72;;
21235;SDS011;10775;42.678;26.324;2023-02-28T07:41:30;6.32;;;4.47;;
21235;SDS011;10775;42.678;26.324;2023-02-28T07:43:58;6.68;;;4.57;;
21235;SDS011;10775;42.678;26.324;2023-02-28T07:46:24;7.40;;;4.10;;
21235;SDS011;10775;42.678;26.324;2023-02-28T07:48:50;6.95;;;3.83;;
21235;SDS011;10775;42.678;26.324;2023-02-28T07:51:16;4.50;;;3.20;;
21235;SDS011;10775;42.678;26.324;2023-02-28T07:53:42;5.68;;;2.90;;
21235;SDS011;10775;42.678;26.324;2023-02-28T07:56:07;8.80;;;3.70;;
21235;SDS011;10775;42.678;26.324;2023-02-28T07:58:33;5.85;;;3.45;;
21235;SDS011;10775;42.678;26.324;2023-02-28T08:01:06;5.43;;;3.25;;
21235;SDS011;10775;42.678;26.324;2023-02-28T08:03:33;5.43;;;3.17;;
21235;SDS011;10775;42.678;26.324;2023-02-28T08:05:58;5.93;;;3.70;;
21235;SDS011;10775;42.678;26.324;2023-02-28T08:08:23;5.10;;;3.85;;
21235;SDS011;10775;42.678;26.324;2023-02-28T08:10:53;4.97;;;3.08;;
21235;SDS011;10775;42.678;26.324;2023-02-28T08:13:18;6.35;;;3.70;;
21235;SDS011;10775;42.678;26.324;2023-02-28T08:15:44;5.50;;;3.50;;
21235;SDS011;10775;42.678;26.324;2023-02-28T08:18:10;8.65;;;3.38;;
21235;SDS011;10775;42.678;26.324;2023-02-28T08:20:36;5.53;;;3.20;;
21235;SDS011;10775;42.678;26.324;2023-02-28T08:23:01;4.45;;;2.70;;
21235;SDS011;10775;42.678;26.324;2023-02-28T08:25:27;4.47;;;3.00;;
21235;SDS011;10775;42.678;26.324;2023-02-28T08:27:52;7.60;;;4.28;;
21235;SDS011;10775;42.678;26.324;2023-02-28T08:30:18;7.85;;;4.05;;
21235;SDS011;10775;42.678;26.324;2023-02-28T08:32:43;6.55;;;4.47;;
21235;SDS011;10775;42.678;26.324;2023-02-28T08:35:09;7.75;;;3.92;;
21235;SDS011;10775;42.678;26.324;2023-02-28T08:37:35;8.43;;;4.47;;
21235;SDS011;10775;42.678;26.324;2023-02-28T08:40:00;6.22;;;4.35;;
21235;SDS011;10775;42.678;26.324;2023-02-28T08:42:26;7.60;;;4.30;;
21235;SDS011;10775;42.678;26.324;2023-02-28T08:44:52;6.18;;;4.32;;
21235;SDS011;10775;42.678;26.324;2023-02-28T08:47:17;8.27;;;5.03;;
21235;SDS011;10775;42.678;26.324;2023-02-28T08:49:44;6.78;;;3.70;;
21235;SDS011;10775;42.678;26.324;2023-02-28T08:52:09;4.82;;;2.55;;
21235;SDS011;10775;42.678;26.324;2023-02-28T08:54:35;5.88;;;3.55;;
21235;SDS011;10775;42.678;26.324;2023-02-28T08:57:00;7.80;;;3.42;;
21235;SDS011;10775;42.678;26.324;2023-02-28T08:59:26;7.15;;;4.07;;
21235;SDS011;10775;42.678;26.324;2023-02-28T09:01:51;7.85;;;4.40;;
21235;SDS011;10775;42.678;26.324;2023-02-28T09:04:17;11.27;;;4.70;;
21235;SDS011;10775;42.678;26.324;2023-02-28T09:06:42;8.50;;;4.93;;
21235;SDS011;10775;42.678;26.324;2023-02-28T09:09:09;6.93;;;4.57;;
21235;SDS011;10775;42.678;26.324;2023-02-28T09:11:34;9.18;;;5.05;;
21235;SDS011;10775;42.678;26.324;2023-02-28T09:14:00;10.40;;;5.00;;
21235;SDS011;10775;42.678;26.324;2023-02-28T09:16:28;9.98;;;5.18;;
21235;SDS011;10775;42.678;26.324;2023-02-28T09:18:55;7.03;;;4.18;;
21235;SDS011;10775;42.678;26.324;2023-02-28T09:21:21;8.60;;;4.28;;
21235;SDS011;10775;42.678;26.324;2023-02-28T09:23:47;7.57;;;4.32;;
21235;SDS011;10775;42.678;26.324;2023-02-28T09:26:18;20.35;;;10.65;;
21235;SDS011;10775;42.678;26.324;2023-02-28T09:28:45;7.80;;;4.10;;
21235;SDS011;10775;42.678;26.324;2023-02-28T09:31:11;6.70;;;3.85;;
21235;SDS011;10775;42.678;26.324;2023-02-28T09:33:39;7.55;;;4.20;;
21235;SDS011;10775;42.678;26.324;2023-02-28T09:36:05;7.53;;;3.55;;
21235;SDS011;10775;42.678;26.324;2023-02-28T09:38:30;7.90;;;3.83;;
21235;SDS011;10775;42.678;26.324;2023-02-28T09:40:58;7.13;;;3.92;;
21235;SDS011;10775;42.678;26.324;2023-02-28T09:43:26;9.30;;;4.30;;
21235;SDS011;10775;42.678;26.324;2023-02-28T09:46:10;6.63;;;4.35;;
21235;SDS011;10775;42.678;26.324;2023-02-28T09:48:39;10.05;;;4.97;;
21235;SDS011;10775;42.678;26.324;2023-02-28T09:54:00;8.02;;;4.00;;
21235;SDS011;10775;42.678;26.324;2023-02-28T09:56:36;6.63;;;3.60;;
21235;SDS011;10775;42.678;26.324;2023-02-28T10:01:44;5.05;;;2.63;;
21235;SDS011;10775;42.678;26.324;2023-02-28T10:06:54;8.50;;;4.38;;
21235;SDS011;10775;42.678;26.324;2023-02-28T10:09:24;9.07;;;5.60;;
21235;SDS011;10775;42.678;26.324;2023-02-28T10:11:56;6.93;;;3.85;;
21235;SDS011;10775;42.678;26.324;2023-02-28T10:14:28;8.00;;;4.53;;
21235;SDS011;10775;42.678;26.324;2023-02-28T10:16:59;4.95;;;3.08;;
21235;SDS011;10775;42.678;26.324;2023-02-28T10:19:33;7.18;;;3.70;;
21235;SDS011;10775;42.678;26.324;2023-02-28T10:22:08;6.00;;;3.78;;
21235;SDS011;10775;42.678;26.324;2023-02-28T10:24:40;6.55;;;3.40;;
21235;SDS011;10775;42.678;26.324;2023-02-28T10:27:17;5.90;;;3.55;;
21235;SDS011;10775;42.678;26.324;2023-02-28T10:29:49;6.68;;;3.95;;
21235;SDS011;10775;42.678;26.324;2023-02-28T10:32:34;8.18;;;3.78;;
21235;SDS011;10775;42.678;26.324;2023-02-28T10:37:37;6.45;;;3.70;;
21235;SDS011;10775;42.678;26.324;2023-02-28T10:40:04;10.87;;;3.77;;
21235;SDS011;10775;42.678;26.324;2023-02-28T10:42:33;6.15;;;3.85;;
21235;SDS011;10775;42.678;26.324;2023-02-28T10:47:32;6.78;;;3.45;;
21235;SDS011;10775;42.678;26.324;2023-02-28T10:49:59;6.88;;;4.00;;
21235;SDS011;10775;42.678;26.324;2023-02-28T10:52:35;7.65;;;4.88;;
21235;SDS011;10775;42.678;26.324;2023-02-28T10:55:20;6.60;;;4.13;;
21235;SDS011;10775;42.678;26.324;2023-02-28T10:57:53;7.47;;;3.97;;
21235;SDS011;10775;42.678;26.324;2023-02-28T11:00:22;11.02;;;5.22;;
21235;SDS011;10775;42.678;26.324;2023-02-28T11:02:50;6.70;;;4.68;;
21235;SDS011;10775;42.678;26.324;2023-02-28T11:05:32;7.65;;;4.72;;
21235;SDS011;10775;42.678;26.324;2023-02-28T11:10:31;5.35;;;3.83;;
21235;SDS011;10775;42.678;26.324;2023-02-28T11:13:00;7.55;;;4.10;;
21235;SDS011;10775;42.678;26.324;2023-02-28T11:15:28;7.13;;;3.90;;
21235;SDS011;10775;42.678;26.324;2023-02-28T11:18:01;7.15;;;4.22;;
21235;SDS011;10775;42.678;26.324;2023-02-28T11:20:48;6.43;;;4.10;;
21235;SDS011;10775;42.678;26.324;2023-02-28T11:23:15;9.63;;;4.63;;
21235;SDS011;10775;42.678;26.324;2023-02-28T11:25:54;10.70;;;4.15;;
21235;SDS011;10775;42.678;26.324;2023-02-28T11:28:33;7.32;;;4.28;;
21235;SDS011;10775;42.678;26.324;2023-02-28T11:36:28;6.95;;;3.58;;
21235;SDS011;10775;42.678;26.324;2023-02-28T11:38:59;9.45;;;4.05;;
21235;SDS011;10775;42.678;26.324;2023-02-28T11:44:18;9.48;;;4.55;;
21235;SDS011;10775;42.678;26.324;2023-02-28T11:49:44;8.13;;;5.20;;
21235;SDS011;10775;42.678;26.324;2023-02-28T11:52:34;7.45;;;3.97;;
21235;SDS011;10775;42.678;26.324;2023-02-28T11:55:28;8.75;;;5.13;;
21235;SDS011;10775;42.678;26.324;2023-02-28T11:58:04;5.65;;;3.00;;
21235;SDS011;10775;42.678;26.324;2023-02-28T12:00:34;6.38;;;4.35;;
21235;SDS011;10775;42.678;26.324;2023-02-28T12:11:48;8.00;;;5.05;;
21235;SDS011;10775;42.678;26.324;2023-02-28T12:28:14;24.73;;;12.48;;
21235;SDS011;10775;42.678;26.324;2023-02-28T12:30:47;21.70;;;12.38;;
21235;SDS011;10775;42.678;26.324;2023-02-28T12:33:18;20.80;;;11.20;;
21235;SDS011;10775;42.678;26.324;2023-02-28T12:35:52;21.83;;;10.27;;
21235;SDS011;10775;42.678;26.324;2023-02-28T12:39:03;19.48;;;9.40;;
21235;SDS011;10775;42.678;26.324;2023-02-28T12:41:13;20.10;;;9.65;;
21235;SDS011;10775;42.678;26.324;2023-02-28T12:44:02;18.92;;;9.32;;
21235;SDS011;10775;42.678;26.324;2023-02-28T12:46:34;17.80;;;8.18;;
21235;SDS011;10775;42.678;26.324;2023-02-28T12:49:16;19.10;;;9.98;;
21235;SDS011;10775;42.678;26.324;2023-02-28T12:51:46;17.10;;;8.32;;
21235;SDS011;10775;42.678;26.324;2023-02-28T12:54:18;18.67;;;8.27;;
21235;SDS011;10775;42.678;26.324;2023-02-28T13:04:42;14.32;;;7.35;;
21235;SDS011;10775;42.678;26.324;2023-02-28T13:10:04;13.60;;;7.20;;
21235;SDS011;10775;42.678;26.324;2023-02-28T13:12:32;14.82;;;7.13;;
21235;SDS011;10775;42.678;26.324;2023-02-28T13:15:41;13.23;;;6.68;;
21235;SDS011;10775;42.678;26.324;2023-02-28T13:17:52;12.90;;;6.95;;
21235;SDS011;10775;42.678;26.324;2023-02-28T13:22:50;11.23;;;6.20;;
21235;SDS011;10775;42.678;26.324;2023-02-28T13:27:59;12.35;;;5.68;;
21235;SDS011;10775;42.678;26.324;2023-02-28T13:35:45;9.98;;;5.70;;
21235;SDS011;10775;42.678;26.324;2023-02-28T13:38:21;13.30;;;6.47;;
21235;SDS011;10775;42.678;26.324;2023-02-28T13:40:49;14.02;;;6.25;;
21235;SDS011;10775;42.678;26.324;2023-02-28T13:43:16;16.92;;;6.28;;
21235;SDS011;10775;42.678;26.324;2023-02-28T13:46:03;14.20;;;6.65;;
21235;SDS011;10775;42.678;26.324;2023-02-28T13:48:36;12.20;;;6.55;;
21235;SDS011;10775;42.678;26.324;2023-02-28T13:51:25;18.80;;;13.85;;
21235;SDS011;10775;42.678;26.324;2023-02-28T13:56:57;17.38;;;9.25;;
21235;SDS011;10775;42.678;26.324;2023-02-28T14:05:13;15.20;;;8.52;;
21235;SDS011;10775;42.678;26.324;2023-02-28T14:07:48;14.98;;;8.00;;
21235;SDS011;10775;42.678;26.324;2023-02-28T14:15:59;10.20;;;6.25;;
21235;SDS011;10775;42.678;26.324;2023-02-28T14:18:36;11.38;;;6.25;;
21235;SDS011;10775;42.678;26.324;2023-02-28T14:21:11;11.45;;;6.57;;
21235;SDS011;10775;42.678;26.324;2023-02-28T14:24:00;12.07;;;6.53;;
21235;SDS011;10775;42.678;26.324;2023-02-28T14:37:33;9.43;;;5.43;;
21235;SDS011;10775;42.678;26.324;2023-02-28T14:40:02;11.63;;;5.85;;
21235;SDS011;10775;42.678;26.324;2023-02-28T14:44:57;9.07;;;4.90;;
21235;SDS011;10775;42.678;26.324;2023-02-28T14:47:23;10.27;;;4.60;;
21235;SDS011;10775;42.678;26.324;2023-02-28T14:49:53;12.55;;;6.15;;
21235;SDS011;10775;42.678;26.324;2023-02-28T14:52:23;9.73;;;5.68;;
21235;SDS011;10775;42.678;26.324;2023-02-28T14:54:58;10.35;;;5.63;;
21235;SDS011;10775;42.678;26.324;2023-02-28T14:59:57;11.40;;;5.25;;
21235;SDS011;10775;42.678;26.324;2023-02-28T15:02:37;11.10;;;5.45;;
21235;SDS011;10775;42.678;26.324;2023-02-28T15:05:16;11.52;;;5.88;;
21235;SDS011;10775;42.678;26.324;2023-02-28T15:07:47;9.10;;;4.70;;
21235;SDS011;10775;42.678;26.324;2023-02-28T15:10:18;13.68;;;5.80;;
21235;SDS011;10775;42.678;26.324;2023-02-28T15:15:21;8.68;;;5.18;;
21235;SDS011;10775;42.678;26.324;2023-02-28T15:17:52;9.63;;;5.75;;
21235;SDS011;10775;42.678;26.324;2023-02-28T15:20:21;8.35;;;4.85;;
21235;SDS011;10775;42.678;26.324;2023-02-28T15:22:49;10.50;;;5.18;;
21235;SDS011;10775;42.678;26.324;2023-02-28T15:25:18;9.48;;;4.68;;
21235;SDS011;10775;42.678;26.324;2023-02-28T15:27:50;11.13;;;4.45;;
21235;SDS011;10775;42.678;26.324;2023-02-28T15:30:21;8.48;;;4.30;;
21235;SDS011;10775;42.678;26.324;2023-02-28T15:33:03;8.93;;;5.40;;
21235;SDS011;10775;42.678;26.324;2023-02-28T15:35:47;8.20;;;4.63;;
21235;SDS011;10775;42.678;26.324;2023-02-28T15:38:26;7.03;;;4.43;;
21235;SDS011;10775;42.678;26.324;2023-02-28T15:40:53;6.10;;;4.00;;
21235;SDS011;10775;42.678;26.324;2023-02-28T15:43:27;9.73;;;4.18;;
21235;SDS011;10775;42.678;26.324;2023-02-28T15:48:42;7.75;;;4.82;;
21235;SDS011;10775;42.678;26.324;2023-02-28T15:53:48;9.23;;;5.40;;
21235;SDS011;10775;42.678;26.324;2023-02-28T15:56:29;11.17;;;7.17;;
21235;SDS011;10775;42.678;26.324;2023-02-28T15:59:00;6.47;;;3.88;;
21235;SDS011;10775;42.678;26.324;2023-02-28T16:01:29;6.72;;;4.10;;
21235;SDS011;10775;42.678;26.324;2023-02-28T16:03:57;8.38;;;3.75;;
21235;SDS011;10775;42.678;26.324;2023-02-28T16:09:03;6.43;;;4.47;;
21235;SDS011;10775;42.678;26.324;2023-02-28T16:11:30;4.15;;;2.95;;
21235;SDS011;10775;42.678;26.324;2023-02-28T16:13:58;8.52;;;4.00;;
21235;SDS011;10775;42.678;26.324;2023-02-28T16:16:24;6.88;;;3.63;;
21235;SDS011;10775;42.678;26.324;2023-02-28T16:18:51;5.82;;;3.72;;
21235;SDS011;10775;42.678;26.324;2023-02-28T16:21:17;15.10;;;9.38;;
21235;SDS011;10775;42.678;26.324;2023-02-28T16:23:43;21.65;;;10.77;;
21235;SDS011;10775;42.678;26.324;2023-02-28T16:26:10;6.50;;;3.95;;
21235;SDS011;10775;42.678;26.324;2023-02-28T16:28:43;8.90;;;3.97;;
21235;SDS011;10775;42.678;26.324;2023-02-28T16:31:09;5.95;;;3.80;;
21235;SDS011;10775;42.678;26.324;2023-02-28T16:33:41;7.30;;;3.50;;
21235;SDS011;10775;42.678;26.324;2023-02-28T16:36:09;6.03;;;3.70;;
21235;SDS011;10775;42.678;26.324;2023-02-28T16:38:38;8.30;;;3.70;;
21235;SDS011;10775;42.678;26.324;2023-02-28T16:41:04;4.72;;;3.60;;
21235;SDS011;10775;42.678;26.324;2023-02-28T16:43:30;5.05;;;3.38;;
21235;SDS011;10775;42.678;26.324;2023-02-28T16:45:56;7.55;;;4.10;;
21235;SDS011;10775;42.678;26.324;2023-02-28T16:48:25;7.53;;;3.92;;
21235;SDS011;10775;42.678;26.324;2023-02-28T16:50:50;7.15;;;3.78;;
21235;SDS011;10775;42.678;26.324;2023-02-28T16:53:16;7.15;;;4.15;;
21235;SDS011;10775;42.678;26.324;2023-02-28T16:55:42;6.63;;;3.90;;
21235;SDS011;10775;42.678;26.324;2023-02-28T16:58:11;7.07;;;3.80;;
21235;SDS011;10775;42.678;26.324;2023-02-28T17:00:40;5.97;;;3.58;;
21235;SDS011;10775;42.678;26.324;2023-02-28T17:03:09;7.50;;;3.25;;
21235;SDS011;10775;42.678;26.324;2023-02-28T17:05:44;6.57;;;3.53;;
21235;SDS011;10775;42.678;26.324;2023-02-28T17:08:10;5.88;;;3.30;;
21235;SDS011;10775;42.678;26.324;2023-02-28T17:10:36;5.50;;;3.65;;
21235;SDS011;10775;42.678;26.324;2023-02-28T17:13:01;7.13;;;3.53;;
21235;SDS011;10775;42.678;26.324;2023-02-28T17:15:27;6.00;;;3.88;;
21235;SDS011;10775;42.678;26.324;2023-02-28T17:17:52;7.25;;;4.18;;
21235;SDS011;10775;42.678;26.324;2023-02-28T17:20:19;7.57;;;4.30;;